Terminal Aerodrome Forecast
Issued by NWS

Home | Current Version | Previous Version | Graphics & Text | Print | Product List | Glossary On
Versions: 1 2 3 4 5 6 7 8 9 10 11 12
000
FTUS43 KMPX 171133
TAFRWF
TAF
KRWF 171133Z 1712/1812 15016G22KT P6SM OVC025
     FM171700 21009KT P6SM BKN030
     FM171900 25006KT 5SM -DZ BR OVC020
     FM172100 35007KT 2SM -DZ BR OVC020
     FM180000 34009KT P6SM BKN025 OVC050
     FM180500 32011G17KT P6SM OVC050=

USA.gov is the U.S. government's official web portal to all federal, state and local government web resources and services.